Time;durP1;ratioP1;P1;durP2;ratioP2;P2;SDS_P1;SDS_P2;PMS_P1;PMS_P2;Temp;Humidity;BMP_temperature;BMP_pressure;BME280_temperature;BME280_humidity;BME280_pressure;Samples;Min_cycle;Max_cycle;Signal;HPM_P1;HPM_P2
2022/11/24 00:00:33;;;;;;;3.10;1.90;;;16.20;66.30;17.30;99678.00;;;;5050013;28;20181;-52
2022/11/24 00:02:59;;;;;;;2.30;2.00;;;16.20;66.30;17.30;99676.00;;;;5031629;28;20244;-51
2022/11/24 00:05:25;;;;;;;2.20;2.00;;;16.20;66.20;17.30;99683.00;;;;5031636;28;20235;-52
2022/11/24 00:07:51;;;;;;;2.20;2.00;;;16.20;66.20;17.30;99677.00;;;;5049674;28;20170;-48
2022/11/24 00:10:17;;;;;;;2.13;1.80;;;16.20;66.20;17.30;99676.00;;;;5049195;28;20800;-51
2022/11/24 00:12:43;;;;;;;2.17;1.93;;;16.20;66.30;17.30;99685.00;;;;5049489;28;20212;-53
2022/11/24 00:15:09;;;;;;;2.00;1.80;;;16.10;66.10;17.30;99689.00;;;;5049698;28;20233;-50
2022/11/24 00:17:34;;;;;;;2.87;1.93;;;16.20;66.40;17.30;99677.00;;;;5049705;28;20193;-49
2022/11/24 00:20:00;;;;;;;2.40;1.90;;;16.20;66.40;17.20;99681.00;;;;5049472;28;20623;-51
2022/11/24 00:22:26;;;;;;;2.70;2.10;;;16.20;66.40;17.30;99686.00;;;;5049630;28;20174;-49
2022/11/24 00:24:52;;;;;;;2.10;1.90;;;16.20;66.20;17.30;99691.00;;;;5049432;28;20201;-50
2022/11/24 00:27:17;;;;;;;3.03;2.07;;;16.30;66.10;17.30;99680.00;;;;5049438;28;20640;-50
2022/11/24 00:29:43;;;;;;;2.10;1.90;;;16.40;66.00;17.30;99678.00;;;;5049367;28;20203;-52
2022/11/24 00:32:09;;;;;;;2.10;1.90;;;16.40;65.90;17.40;99683.00;;;;5048754;28;20234;-50
2022/11/24 00:34:35;;;;;;;2.27;1.90;;;16.40;65.70;17.40;99690.00;;;;5049049;28;20178;-49
2022/11/24 00:37:00;;;;;;;2.53;2.00;;;16.40;65.70;17.40;99680.00;;;;5049021;28;20175;-50
2022/11/24 00:39:26;;;;;;;3.37;1.90;;;16.40;65.80;17.40;99675.00;;;;5048989;28;20569;-50
2022/11/24 00:41:52;;;;;;;2.13;1.93;;;16.40;65.80;17.30;99682.00;;;;5049004;28;20563;-50
2022/11/24 00:44:17;;;;;;;1.97;1.87;;;16.40;65.90;17.40;99692.00;;;;5049167;28;20773;-51
2022/11/24 00:46:43;;;;;;;2.00;1.80;;;16.40;65.90;17.30;99682.00;;;;5048840;28;20213;-50
2022/11/24 00:49:09;;;;;;;2.17;1.90;;;16.40;66.00;17.40;99682.00;;;;5049063;28;20203;-49
2022/11/24 00:51:35;;;;;;;1.93;1.80;;;16.40;66.00;17.40;99685.00;;;;5048645;28;20193;-51
2022/11/24 00:54:01;;;;;;;2.93;2.10;;;16.40;66.10;17.40;99680.00;;;;5048811;28;20662;-51
2022/11/24 00:56:27;;;;;;;1.93;1.73;;;16.40;66.20;17.40;99692.00;;;;5048930;28;20205;-51
2022/11/24 00:58:53;;;;;;;2.83;2.20;;;16.40;66.10;17.40;99691.00;;;;5048925;28;20627;-51
2022/11/24 01:01:22;;;;;;;2.63;2.10;;;16.40;66.20;17.40;99690.00;;;;5048595;28;20660;-49
2022/11/24 01:03:48;;;;;;;1.87;1.77;;;16.40;66.10;17.40;99695.00;;;;5048983;28;20659;-51
2022/11/24 01:06:19;;;;;;;1.90;1.80;;;16.50;66.20;17.50;99700.00;;;;5048353;28;20210;-50
2022/11/24 01:08:45;;;;;;;2.30;1.93;;;16.50;66.20;17.50;99697.00;;;;5030966;28;20694;-51
2022/11/24 01:11:17;;;;;;;2.43;2.00;;;16.50;66.00;17.50;99700.00;;;;5048625;28;20181;-50
2022/11/24 01:13:44;;;;;;;1.80;1.67;;;16.50;66.10;17.50;99703.00;;;;5048841;28;20173;-50
2022/11/24 01:16:15;;;;;;;2.03;1.83;;;16.50;66.10;17.50;99714.00;;;;5048548;28;20700;-53
2022/11/24 01:18:41;;;;;;;2.00;1.63;;;16.50;66.20;17.50;99710.00;;;;5053520;28;20217;-51
2022/11/24 01:21:06;;;;;;;2.30;1.80;;;16.50;66.20;17.50;99713.00;;;;5053321;28;20595;-52
2022/11/24 01:23:32;;;;;;;2.20;2.00;;;16.50;66.20;17.50;99711.00;;;;5048221;28;20208;-50
2022/11/24 01:25:58;;;;;;;2.80;2.03;;;16.40;66.20;17.50;99719.00;;;;5048438;28;20253;-50
2022/11/24 01:28:23;;;;;;;2.57;2.20;;;16.40;66.20;17.40;99726.00;;;;5048594;28;20180;-50
2022/11/24 01:30:57;;;;;;;2.03;1.80;;;16.40;66.20;17.50;99722.00;;;;5048461;28;20180;-50
2022/11/24 01:33:23;;;;;;;2.63;2.10;;;16.40;66.20;17.50;99729.00;;;;5048534;28;20172;-50
2022/11/24 01:35:49;;;;;;;2.17;1.80;;;16.40;66.10;17.50;99722.00;;;;5048273;28;20205;-51
2022/11/24 01:38:15;;;;;;;2.77;2.00;;;16.50;66.20;17.40;99724.00;;;;5048242;28;20313;-52
2022/11/24 01:40:40;;;;;;;2.00;1.80;;;16.50;66.10;17.50;99724.00;;;;5047990;28;20178;-50
2022/11/24 01:43:20;;;;;;;2.20;1.90;;;16.50;65.90;17.50;99721.00;;;;5047995;28;20176;-49
2022/11/24 01:45:46;;;;;;;2.00;1.80;;;16.50;65.90;17.50;99721.00;;;;5047923;28;20758;-50
2022/11/24 01:48:21;;;;;;;2.00;1.80;;;16.50;66.00;17.50;99719.00;;;;5030338;28;20175;-50
2022/11/24 01:50:52;;;;;;;2.70;1.80;;;16.50;66.10;17.50;99718.00;;;;5030312;28;20185;-51
2022/11/24 01:53:19;;;;;;;2.10;1.87;;;16.50;66.20;17.40;99713.00;;;;5030973;28;20159;-51
2022/11/24 01:55:44;;;;;;;1.93;1.73;;;16.50;66.20;17.50;99723.00;;;;5030214;28;20190;-50
2022/11/24 01:58:18;;;;;;;1.80;1.70;;;16.40;66.20;17.40;99736.00;;;;5048315;28;20259;-52
2022/11/24 02:00:44;;;;;;;2.27;1.93;;;16.40;66.20;17.40;99739.00;;;;5030779;28;20538;-49
2022/11/24 02:03:12;;;;;;;1.90;1.80;;;16.40;66.30;17.40;99732.00;;;;5047781;28;20206;-50
2022/11/24 02:06:10;;;;;;;2.47;2.00;;;16.40;66.20;17.40;99734.00;;;;5030120;28;20789;-49
2022/11/24 02:08:50;;;;;;;2.17;1.73;;;16.50;66.20;17.40;99746.00;;;;5021798;28;20193;-50
2022/11/24 02:11:15;;;;;;;2.10;1.80;;;16.50;66.20;17.40;99736.00;;;;5030012;28;20200;-51
2022/11/24 02:13:41;;;;;;;2.53;2.10;;;16.50;66.00;17.50;99740.00;;;;5048184;28;20174;-51
2022/11/24 02:16:07;;;;;;;2.10;1.90;;;16.50;66.00;17.40;99734.00;;;;5051105;28;20758;-49
2022/11/24 02:18:33;;;;;;;2.07;1.67;;;16.50;66.00;17.50;99739.00;;;;5017855;28;20174;-50
2022/11/24 02:20:59;;;;;;;1.90;1.70;;;16.50;66.00;17.50;99747.00;;;;5033699;28;20174;-49
2022/11/24 02:23:49;;;;;;;2.67;1.80;;;16.50;66.20;17.50;99752.00;;;;5033804;28;20196;-50
2022/11/24 02:26:33;;;;;;;2.03;1.83;;;16.50;66.20;17.40;99753.00;;;;5051489;28;20214;-50
2022/11/24 02:28:59;;;;;;;1.90;1.70;;;16.40;66.00;17.40;99758.00;;;;5035275;28;20165;-50
2022/11/24 02:31:24;;;;;;;1.87;1.73;;;16.40;66.20;17.40;99751.00;;;;5033623;28;20210;-50
2022/11/24 02:33:50;;;;;;;2.10;1.90;;;16.40;66.20;17.40;99750.00;;;;5033507;28;20182;-50
2022/11/24 02:36:16;;;;;;;1.70;1.60;;;16.40;66.20;17.40;99747.00;;;;5017103;28;20193;-52
2022/11/24 02:38:42;;;;;;;2.00;1.80;;;16.50;66.20;17.20;99759.00;;;;5051331;28;20239;-49
2022/11/24 02:41:10;;;;;;;2.20;1.87;;;16.50;66.00;17.50;99736.00;;;;5051371;28;20721;-49
2022/11/24 02:44:03;;;;;;;1.77;1.67;;;16.50;66.00;17.40;99765.00;;;;5033784;28;20285;-49
2022/11/24 02:46:28;;;;;;;1.83;1.70;;;16.50;65.90;17.40;99760.00;;;;5047611;28;20637;-49
2022/11/24 02:48:54;;;;;;;2.20;2.00;;;16.50;65.90;17.40;99767.00;;;;5051395;28;20201;-53
2022/11/24 02:51:20;;;;;;;2.10;1.90;;;16.50;65.80;17.40;99766.00;;;;5051022;28;20185;-49
2022/11/24 02:53:46;;;;;;;2.30;1.90;;;16.50;65.80;17.40;99772.00;;;;5033407;28;20661;-51
2022/11/24 02:56:11;;;;;;;2.00;1.80;;;16.50;66.00;17.40;99770.00;;;;5050758;28;20548;-50
2022/11/24 02:58:37;;;;;;;1.97;1.77;;;16.50;66.10;17.40;99759.00;;;;5050837;28;20239;-50
2022/11/24 03:01:03;;;;;;;2.00;1.80;;;16.50;66.10;17.40;99760.00;;;;5050813;28;20189;-50
2022/11/24 03:03:29;;;;;;;2.53;1.83;;;16.40;66.10;17.40;99763.00;;;;5050803;28;20183;-50
2022/11/24 03:05:55;;;;;;;2.20;1.70;;;16.40;66.00;17.40;99766.00;;;;5050718;28;20206;-52
2022/11/24 03:08:20;;;;;;;2.13;1.70;;;16.40;66.10;17.40;99762.00;;;;5050597;28;20281;-50
2022/11/24 03:10:46;;;;;;;2.80;1.90;;;16.50;66.20;17.40;99765.00;;;;5050993;28;20175;-51
2022/11/24 03:13:12;;;;;;;2.10;1.80;;;16.40;66.00;17.20;99763.00;;;;5050853;28;20720;-51
2022/11/24 03:15:38;;;;;;;2.33;1.90;;;16.50;66.10;17.40;99761.00;;;;5050902;28;20663;-51
2022/11/24 03:18:04;;;;;;;2.57;1.90;;;16.50;66.00;17.40;99756.00;;;;5050606;28;20183;-51
2022/11/24 03:20:29;;;;;;;2.10;1.90;;;16.50;65.80;17.40;99760.00;;;;5050397;28;20523;-51
2022/11/24 03:22:55;;;;;;;2.10;1.90;;;16.50;65.80;17.50;99768.00;;;;5050683;28;20213;-53
2022/11/24 03:25:21;;;;;;;2.10;1.70;;;16.50;65.80;17.50;99767.00;;;;5050795;28;20219;-52
2022/11/24 03:27:47;;;;;;;1.70;1.60;;;16.50;65.80;17.40;99761.00;;;;5049779;28;20179;-50
2022/11/24 03:30:13;;;;;;;3.70;1.90;;;16.50;65.90;17.50;99775.00;;;;5050311;28;20752;-51
2022/11/24 03:32:39;;;;;;;2.33;1.77;;;16.50;65.90;17.40;99763.00;;;;5050024;28;20178;-51
2022/11/24 03:35:05;;;;;;;1.97;1.60;;;16.50;65.90;17.50;99769.00;;;;5050366;28;20281;-49
2022/11/24 03:37:31;;;;;;;1.90;1.80;;;16.50;66.00;17.40;99762.00;;;;5050523;28;20182;-49
2022/11/24 03:39:56;;;;;;;2.63;1.90;;;16.50;66.00;17.40;99777.00;;;;5050271;28;20649;-50
2022/11/24 03:42:22;;;;;;;2.67;1.90;;;16.40;66.00;17.50;99779.00;;;;5049700;28;20191;-50
2022/11/24 03:44:48;;;;;;;2.10;1.60;;;16.40;66.00;17.40;99780.00;;;;5049869;28;20286;-51
2022/11/24 03:47:13;;;;;;;2.40;1.97;;;16.40;66.10;17.40;99787.00;;;;5050261;28;20179;-53
2022/11/24 03:49:40;;;;;;;2.23;1.80;;;16.40;66.00;17.40;99785.00;;;;5050168;28;20175;-52
2022/11/24 03:52:06;;;;;;;3.83;1.90;;;16.50;66.00;17.40;99785.00;;;;5049655;28;20182;-53
2022/11/24 03:54:32;;;;;;;2.00;1.77;;;16.50;65.90;17.50;99788.00;;;;5049869;28;20175;-51
2022/11/24 03:56:57;;;;;;;2.47;1.80;;;16.50;65.90;17.50;99777.00;;;;5050766;28;20679;-51
2022/11/24 03:59:23;;;;;;;2.00;1.80;;;16.50;65.80;17.50;99791.00;;;;5051367;28;20176;-50
2022/11/24 04:01:49;;;;;;;2.40;1.90;;;16.50;65.80;17.50;99782.00;;;;5051746;28;20674;-51
2022/11/24 04:04:15;;;;;;;2.23;1.80;;;16.50;65.80;17.40;99791.00;;;;5050595;28;20548;-51
2022/11/24 04:06:40;;;;;;;2.90;1.87;;;16.40;65.60;17.40;99793.00;;;;5050120;28;20596;-52
2022/11/24 04:09:07;;;;;;;2.47;2.00;;;16.50;65.80;17.40;99795.00;;;;5050216;28;20247;-54
2022/11/24 04:14:18;;;;;;;2.10;1.80;;;16.40;65.80;17.40;99795.00;;;;5049314;28;20183;-49
2022/11/24 04:16:44;;;;;;;2.33;1.90;;;16.40;65.90;17.40;99801.00;;;;5049392;28;20194;-51
2022/11/24 04:19:09;;;;;;;2.50;2.07;;;16.40;66.00;17.40;99796.00;;;;5049567;28;20189;-50
2022/11/24 04:21:35;;;;;;;1.80;1.70;;;16.40;66.00;17.40;99793.00;;;;5049433;28;20171;-50
2022/11/24 04:24:01;;;;;;;3.53;1.93;;;16.40;66.00;17.40;99791.00;;;;5049391;28;20178;-50
2022/11/24 04:26:27;;;;;;;1.90;1.80;;;16.40;65.80;17.40;99801.00;;;;5048976;28;20229;-52
2022/11/24 04:28:52;;;;;;;2.30;1.80;;;16.50;65.80;17.40;99804.00;;;;5049125;28;20261;-51
2022/11/24 04:31:18;;;;;;;2.03;1.80;;;16.50;65.70;17.40;99802.00;;;;5053850;28;20270;-52
2022/11/24 04:33:44;;;;;;;3.17;2.00;;;16.50;65.60;17.40;99807.00;;;;5060717;28;20627;-51
2022/11/24 04:36:09;;;;;;;11.10;2.37;;;16.50;65.70;17.40;99802.00;;;;5069036;28;20236;-53
2022/11/24 04:38:35;;;;;;;5.63;2.07;;;16.50;66.10;17.40;99806.00;;;;5067093;28;20193;-49
2022/11/24 04:41:04;;;;;;;5.07;1.93;;;16.40;66.60;17.40;99786.00;;;;5048884;28;20540;-49
2022/11/24 04:43:30;;;;;;;3.70;1.83;;;16.50;66.30;17.40;99811.00;;;;5031605;28;20204;-51
2022/11/24 04:45:59;;;;;;;6.53;1.83;;;16.50;66.40;17.40;99827.00;;;;5031241;28;20290;-51
2022/11/24 04:48:25;;;;;;;9.07;2.43;;;16.50;66.60;17.40;99813.00;;;;5049548;28;20167;-49
2022/11/24 04:50:50;;;;;;;2.80;2.00;;;16.40;66.60;17.40;99823.00;;;;5031691;28;20163;-50
2022/11/24 04:53:16;;;;;;;4.20;1.90;;;16.50;66.70;17.40;99830.00;;;;5049637;28;20174;-51
2022/11/24 04:55:42;;;;;;;6.70;2.00;;;16.40;66.60;17.40;99838.00;;;;5049570;28;20187;-50
2022/11/24 04:58:09;;;;;;;7.30;1.93;;;16.40;66.60;17.40;99833.00;;;;5049361;28;20239;-50
2022/11/24 05:00:34;;;;;;;5.07;2.10;;;16.40;66.50;17.40;99837.00;;;;5049950;28;20175;-51
2022/11/24 05:03:00;;;;;;;9.10;2.13;;;16.50;66.50;17.40;99838.00;;;;5048849;28;20535;-51
2022/11/24 05:05:26;;;;;;;4.80;2.10;;;16.50;66.40;17.50;99844.00;;;;5049247;28;20213;-52
2022/11/24 05:07:51;;;;;;;5.23;2.17;;;16.50;66.40;17.50;99835.00;;;;5049680;28;20171;-52
2022/11/24 05:10:35;;;;;;;4.87;2.20;;;16.50;66.30;17.40;99848.00;;;;5049599;28;20316;-50
2022/11/24 05:13:11;;;;;;;4.03;2.03;;;16.50;66.30;17.40;99843.00;;;;5049177;28;20678;-51
2022/11/24 05:15:39;;;;;;;3.90;1.77;;;16.50;66.30;17.40;99848.00;;;;5049381;28;20190;-52
2022/11/24 05:18:10;;;;;;;6.87;2.23;;;16.50;66.30;17.50;99849.00;;;;5049199;28;20248;-52
2022/11/24 05:20:36;;;;;;;3.13;1.97;;;16.50;66.30;17.40;99856.00;;;;5048855;28;20185;-51
2022/11/24 05:23:04;;;;;;;3.80;2.13;;;16.50;66.30;17.50;99858.00;;;;5048909;28;20571;-53
2022/11/24 05:25:29;;;;;;;3.20;1.70;;;16.50;66.30;17.50;99861.00;;;;5048975;28;20397;-50
2022/11/24 05:28:00;;;;;;;3.40;1.80;;;16.50;66.30;17.50;99861.00;;;;5049291;28;20340;-51
2022/11/24 05:30:26;;;;;;;2.80;1.83;;;16.40;66.20;17.40;99858.00;;;;5049208;28;20159;-50
2022/11/24 05:32:51;;;;;;;3.37;2.10;;;16.50;66.40;17.40;99874.00;;;;5053983;28;20189;-51
2022/11/24 05:35:17;;;;;;;4.53;2.10;;;16.40;66.20;17.40;99883.00;;;;5068243;28;20244;-52
2022/11/24 05:37:43;;;;;;;2.80;1.83;;;16.40;66.40;17.40;99882.00;;;;5068828;28;20155;-52
2022/11/24 05:40:09;;;;;;;5.13;2.00;;;16.40;66.40;17.10;99889.00;;;;5050885;28;20280;-49
2022/11/24 05:42:41;;;;;;;3.17;2.00;;;16.40;66.40;17.40;99883.00;;;;5068621;28;20257;-50
2022/11/24 05:45:09;;;;;;;7.10;2.17;;;16.50;66.50;17.40;99885.00;;;;5068473;28;20746;-52
2022/11/24 05:47:35;;;;;;;3.33;2.20;;;16.50;66.30;17.50;99885.00;;;;5068334;28;20170;-52
2022/11/24 05:50:00;;;;;;;5.17;2.30;;;16.50;66.20;17.50;99892.00;;;;5067705;28;20180;-51
2022/11/24 05:52:26;;;;;;;6.70;2.40;;;16.50;66.20;17.50;99885.00;;;;5068337;28;20181;-53
2022/11/24 05:54:52;;;;;;;7.27;2.87;;;16.60;66.20;17.50;99887.00;;;;5068558;28;20174;-52
2022/11/24 05:57:17;;;;;;;7.93;2.40;;;16.50;66.10;17.50;99894.00;;;;5059559;28;20188;-52
2022/11/24 05:59:43;;;;;;;11.20;2.80;;;16.50;66.90;17.50;99903.00;;;;5061192;28;20187;-52
2022/11/24 06:02:09;;;;;;;11.83;2.80;;;16.50;66.20;17.50;99896.00;;;;5068217;28;20174;-52
2022/11/24 06:04:35;;;;;;;11.63;3.03;;;16.50;66.00;17.50;99905.00;;;;5068723;28;20681;-51
2022/11/24 06:07:02;;;;;;;7.57;3.13;;;16.50;66.10;17.50;99901.00;;;;5068877;28;20196;-49
2022/11/24 06:09:28;;;;;;;10.93;3.17;;;16.50;66.10;17.50;99911.00;;;;5068723;28;20603;-53
2022/11/24 06:11:54;;;;;;;11.40;2.90;;;16.50;66.10;17.40;99908.00;;;;5068155;28;20171;-51
2022/11/24 06:14:19;;;;;;;8.57;2.60;;;16.50;66.20;17.50;99912.00;;;;5050583;28;20185;-51
2022/11/24 06:16:46;;;;;;;5.83;2.50;;;16.50;66.30;17.50;99920.00;;;;5067840;28;20259;-51
2022/11/24 06:19:11;;;;;;;7.97;2.70;;;16.40;66.20;17.40;99913.00;;;;5069049;28;20182;-50
2022/11/24 06:21:37;;;;;;;5.90;2.90;;;16.40;66.30;17.40;99920.00;;;;5050010;28;20232;-51
2022/11/24 06:24:03;;;;;;;6.53;2.30;;;16.40;66.30;17.40;99934.00;;;;5068245;28;20324;-51
2022/11/24 06:26:29;;;;;;;9.60;3.03;;;16.40;66.30;17.40;99945.00;;;;5067938;28;20571;-52
2022/11/24 06:28:55;;;;;;;8.93;2.97;;;16.40;66.40;17.40;99934.00;;;;5068060;28;20263;-51
2022/11/24 06:31:20;;;;;;;5.37;2.93;;;16.40;66.40;17.40;99938.00;;;;5067263;28;20433;-52
2022/11/24 06:33:46;;;;;;;10.07;2.70;;;16.40;66.70;17.40;99943.00;;;;5056985;28;20182;-51
2022/11/24 06:36:12;;;;;;;6.77;2.80;;;16.40;66.80;17.40;99947.00;;;;5068189;28;20194;-50
2022/11/24 06:38:38;;;;;;;9.27;2.67;;;16.50;66.90;17.50;99947.00;;;;5068016;28;20180;-50
2022/11/24 06:41:06;;;;;;;6.40;2.60;;;16.50;67.00;17.40;99958.00;;;;5067731;28;20519;-52
2022/11/24 06:43:33;;;;;;;7.53;2.73;;;16.50;66.90;17.50;99964.00;;;;5067687;28;20181;-52
2022/11/24 06:45:59;;;;;;;5.57;2.60;;;16.60;67.00;17.50;99958.00;;;;5067187;28;20234;-53
2022/11/24 06:48:25;;;;;;;8.03;2.70;;;16.50;67.00;17.50;99968.00;;;;5069272;28;20170;-50
2022/11/24 06:50:51;;;;;;;6.40;2.80;;;16.50;67.00;17.50;99981.00;;;;5063868;28;20661;-51
2022/11/24 06:53:17;;;;;;;4.40;2.60;;;16.60;67.10;17.50;99988.00;;;;5058203;28;20172;-51
2022/11/24 06:55:42;;;;;;;5.93;2.50;;;16.50;67.00;17.50;99977.00;;;;5050696;28;20208;-51
2022/11/24 06:58:08;;;;;;;5.07;2.60;;;16.50;67.10;17.50;99971.00;;;;5050312;28;20649;-51
2022/11/24 07:00:35;;;;;;;5.60;2.40;;;16.50;67.10;17.50;99980.00;;;;5068318;28;20647;-52
2022/11/24 07:03:01;;;;;;;4.63;2.57;;;16.50;67.20;17.50;99975.00;;;;5053340;28;20515;-50
2022/11/24 07:05:26;;;;;;;6.53;2.53;;;16.50;67.20;17.50;99985.00;;;;5071458;28;20209;-52
2022/11/24 07:07:52;;;;;;;4.23;2.30;;;16.50;67.40;17.50;99989.00;;;;5071277;28;20177;-51
2022/11/24 07:10:18;;;;;;;4.30;2.30;;;16.40;67.20;17.50;99990.00;;;;5071521;28;20174;-50
2022/11/24 07:12:43;;;;;;;4.33;2.53;;;16.40;67.20;17.50;99992.00;;;;5070661;28;20212;-51
2022/11/24 07:15:09;;;;;;;4.53;2.57;;;16.50;67.40;17.50;99991.00;;;;5071312;28;20189;-50
2022/11/24 07:17:38;;;;;;;4.77;2.60;;;16.40;67.30;17.40;99995.00;;;;5071215;28;20185;-49
2022/11/24 07:20:06;;;;;;;4.73;2.50;;;16.40;67.40;17.50;100013.00;;;;5071053;28;20401;-50
2022/11/24 07:22:31;;;;;;;5.00;2.60;;;16.40;67.30;17.40;100017.00;;;;5071113;28;20261;-49
2022/11/24 07:24:57;;;;;;;4.60;2.47;;;16.50;67.40;17.50;100021.00;;;;5072790;28;20296;-50
2022/11/24 07:27:23;;;;;;;4.20;2.57;;;16.50;67.20;17.50;100017.00;;;;5072772;28;20178;-50
2022/11/24 07:29:49;;;;;;;2.93;2.27;;;16.50;67.20;17.50;100036.00;;;;5071038;28;20261;-52
2022/11/24 07:32:15;;;;;;;6.30;2.70;;;16.50;67.10;17.50;100038.00;;;;5054585;28;20194;-53
2022/11/24 07:34:40;;;;;;;5.43;2.37;;;16.50;67.20;17.50;100042.00;;;;5051011;28;20573;-51
2022/11/24 07:37:06;;;;;;;6.00;2.40;;;16.50;67.00;17.50;100057.00;;;;5050858;28;20626;-51
2022/11/24 07:39:32;;;;;;;6.07;2.70;;;16.50;67.00;17.50;100053.00;;;;5033060;28;20178;-54
2022/11/24 07:41:59;;;;;;;6.47;2.50;;;16.60;67.20;17.50;100066.00;;;;5053603;28;20179;-52
2022/11/24 07:44:25;;;;;;;3.03;2.20;;;16.60;67.10;17.50;100062.00;;;;5050665;28;20584;-52
2022/11/24 07:46:50;;;;;;;6.90;2.60;;;16.70;66.90;17.60;100060.00;;;;5032831;28;20198;-52
2022/11/24 07:49:17;;;;;;;7.70;2.50;;;16.90;66.90;17.60;100068.00;;;;5050738;28;20246;-53
2022/11/24 07:51:43;;;;;;;7.07;2.40;;;17.00;66.70;17.70;100073.00;;;;5050589;28;20178;-53
2022/11/24 07:54:09;;;;;;;4.70;2.53;;;17.10;66.80;17.80;100088.00;;;;5050237;28;20180;-52
2022/11/24 07:56:34;;;;;;;9.43;3.03;;;17.20;66.70;17.90;100093.00;;;;5050802;28;20209;-53
2022/11/24 07:59:00;;;;;;;14.43;2.53;;;17.20;66.50;17.90;100093.00;;;;5050829;28;20540;-51
2022/11/24 08:01:26;;;;;;;12.33;2.80;;;17.30;66.50;17.90;100104.00;;;;5050836;28;20178;-52
2022/11/24 08:03:52;;;;;;;11.03;3.13;;;17.30;66.60;17.90;100103.00;;;;5069139;28;20187;-51
2022/11/24 08:06:17;;;;;;;15.83;2.97;;;17.30;66.80;18.00;100106.00;;;;5069394;28;20212;-53
2022/11/24 08:08:44;;;;;;;12.50;3.00;;;17.20;66.70;18.00;100111.00;;;;5070290;28;20179;-52
2022/11/24 08:11:12;;;;;;;10.57;2.67;;;17.20;67.00;18.00;100119.00;;;;5070519;28;20626;-50
2022/11/24 08:13:38;;;;;;;10.83;2.47;;;17.30;67.00;18.00;100125.00;;;;4941554;28;22218;-50
2022/11/24 08:16:05;;;;;;;8.20;2.73;;;17.30;66.80;18.00;100137.00;;;;5069105;28;20209;-54
2022/11/24 08:18:32;;;;;;;10.33;2.77;;;17.30;66.80;18.10;100130.00;;;;5042970;28;20590;-51
2022/11/24 08:20:58;;;;;;;8.80;2.67;;;17.30;67.10;18.10;100133.00;;;;5060846;28;20675;-51
2022/11/24 08:23:24;;;;;;;5.87;2.43;;;17.30;67.00;18.10;100125.00;;;;5059291;28;20172;-52
2022/11/24 08:25:50;;;;;;;5.50;2.40;;;17.40;67.10;18.10;100142.00;;;;5069852;28;20330;-53
2022/11/24 08:28:16;;;;;;;6.77;2.13;;;17.40;66.80;18.10;100134.00;;;;5069831;28;20630;-54
2022/11/24 08:30:43;;;;;;;5.33;2.30;;;17.30;67.20;18.10;100138.00;;;;5070219;28;20676;-52
2022/11/24 08:33:08;;;;;;;7.83;2.50;;;17.30;67.10;18.10;100136.00;;;;5056992;28;20180;-52
2022/11/24 08:35:37;;;;;;;8.50;2.40;;;17.30;66.90;18.10;100145.00;;;;5060221;28;20278;-53
2022/11/24 08:38:04;;;;;;;9.77;2.70;;;17.30;66.80;18.20;100148.00;;;;5058965;28;20653;-51
2022/11/24 08:40:30;;;;;;;8.03;2.17;;;17.30;66.80;18.20;100157.00;;;;5056624;28;20524;-51
2022/11/24 08:42:59;;;;;;;5.73;2.27;;;17.30;66.70;18.20;100154.00;;;;5049801;28;20190;-50
2022/11/24 08:45:25;;;;;;;4.83;2.30;;;17.30;66.70;18.20;100150.00;;;;5050256;28;20209;-52
2022/11/24 08:47:53;;;;;;;5.77;2.73;;;17.30;66.70;18.20;100158.00;;;;5050114;28;20179;-53
2022/11/24 08:50:19;;;;;;;6.77;2.30;;;17.30;66.70;18.20;100166.00;;;;5050295;28;20204;-52
2022/11/24 08:52:45;;;;;;;4.73;2.27;;;17.30;66.50;18.20;100164.00;;;;5049908;28;20171;-51
2022/11/24 08:55:10;;;;;;;6.30;2.30;;;17.40;66.60;18.20;100160.00;;;;5049920;28;20271;-53
2022/11/24 08:57:36;;;;;;;4.90;2.20;;;17.40;66.60;18.20;100166.00;;;;5049392;28;20199;-52
2022/11/24 09:00:06;;;;;;;2.47;2.03;;;17.40;66.60;18.20;100165.00;;;;5050066;28;20238;-50
2022/11/24 09:02:32;;;;;;;6.30;2.20;;;17.30;66.60;18.20;100173.00;;;;5049582;28;20178;-51
2022/11/24 09:04:57;;;;;;;4.70;2.10;;;17.40;66.60;18.20;100184.00;;;;5051598;28;20212;-52
2022/11/24 09:07:23;;;;;;;4.70;2.33;;;17.40;66.60;18.30;100183.00;;;;5049601;28;20640;-50
2022/11/24 09:09:49;;;;;;;3.93;2.10;;;17.50;66.50;18.30;100179.00;;;;5049738;28;20183;-52
2022/11/24 09:12:15;;;;;;;5.40;2.10;;;17.50;66.50;18.30;100183.00;;;;5049263;28;20178;-53
2022/11/24 09:14:41;;;;;;;3.53;1.90;;;17.40;66.40;18.30;100189.00;;;;5049431;28;20554;-51
2022/11/24 09:17:06;;;;;;;4.83;2.30;;;17.40;66.40;18.30;100197.00;;;;5048991;28;20190;-51
2022/11/24 09:19:32;;;;;;;5.00;2.13;;;17.40;66.40;18.30;100184.00;;;;5049847;28;20204;-52
2022/11/24 09:21:58;;;;;;;4.20;2.00;;;17.40;66.30;18.30;100204.00;;;;5049466;28;20677;-51
2022/11/24 09:24:24;;;;;;;4.63;2.27;;;17.40;66.40;18.30;100201.00;;;;5048025;28;20179;-51
2022/11/24 09:26:49;;;;;;;5.03;2.23;;;17.40;66.30;18.30;100209.00;;;;5049746;28;20210;-51
2022/11/24 09:29:16;;;;;;;5.90;2.43;;;17.50;66.40;18.30;100204.00;;;;5049141;28;20545;-51
2022/11/24 09:31:41;;;;;;;3.13;1.90;;;17.50;66.40;18.30;100218.00;;;;5048567;28;20216;-53
2022/11/24 09:34:10;;;;;;;3.17;2.03;;;17.40;66.40;18.30;100214.00;;;;5048994;28;20178;-51
2022/11/24 09:36:35;;;;;;;2.77;1.83;;;17.50;66.40;18.30;100223.00;;;;5059952;28;20249;-53
2022/11/24 09:39:01;;;;;;;3.73;1.93;;;17.50;66.20;18.30;100227.00;;;;5064147;28;20392;-50
2022/11/24 09:42:14;;;;;;;2.63;1.90;;;17.50;66.10;18.30;100225.00;;;;5049245;28;20180;-52
2022/11/24 09:45:10;;;;;;;3.87;1.90;;;17.50;66.10;18.30;100235.00;;;;5033981;28;20157;-53
2022/11/24 09:47:59;;;;;;;3.07;2.20;;;17.50;66.20;18.30;100249.00;;;;5014849;28;20158;-53
2022/11/24 09:50:36;;;;;;;2.90;1.90;;;17.50;66.20;18.30;100243.00;;;;5015101;28;20171;-50
2022/11/24 09:53:23;;;;;;;2.40;1.77;;;17.50;66.20;18.30;100255.00;;;;5031856;28;20244;-50
2022/11/24 09:55:54;;;;;;;3.73;1.93;;;17.40;66.10;18.30;100232.00;;;;5023578;28;20209;-52
2022/11/24 09:58:51;;;;;;;2.60;1.80;;;17.50;66.20;18.30;100249.00;;;;5031771;28;20176;-51
2022/11/24 10:01:35;;;;;;;3.40;1.93;;;17.50;66.20;18.30;100228.00;;;;5048893;28;20166;-51
2022/11/24 10:04:01;;;;;;;3.50;1.67;;;17.40;66.20;18.30;100260.00;;;;5031580;28;20184;-53
2022/11/24 10:06:43;;;;;;;3.03;2.00;;;17.40;66.10;18.30;100246.00;;;;5030626;28;20207;-50
2022/11/24 10:09:22;;;;;;;3.43;1.97;;;17.40;66.10;18.30;100249.00;;;;5031472;28;20225;-52
2022/11/24 10:12:10;;;;;;;1.90;1.70;;;17.40;66.10;18.30;100258.00;;;;5031998;28;20154;-53
2022/11/24 10:15:17;;;;;;;3.87;1.70;;;17.50;66.10;18.30;100252.00;;;;5033493;28;20161;-51
2022/11/24 10:18:11;;;;;;;2.63;1.77;;;17.50;66.10;18.30;100263.00;;;;5033058;28;20184;-51
2022/11/24 10:20:46;;;;;;;3.90;1.90;;;17.50;66.00;18.30;100276.00;;;;5015535;28;20193;-52
2022/11/24 10:23:45;;;;;;;2.90;1.70;;;17.50;66.00;18.30;100260.00;;;;5048123;28;20195;-53
2022/11/24 10:26:18;;;;;;;3.10;2.10;;;17.50;66.00;18.30;100284.00;;;;5034427;28;20205;-52
2022/11/24 10:28:54;;;;;;;3.10;1.90;;;17.50;66.10;18.30;100277.00;;;;5049416;28;20602;-50
2022/11/24 10:31:29;;;;;;;3.10;2.10;;;17.50;66.00;18.30;100278.00;;;;5048371;28;20178;-51
2022/11/24 10:34:00;;;;;;;2.17;1.80;;;17.50;66.00;18.40;100271.00;;;;5048790;28;20156;-51
2022/11/24 10:36:45;;;;;;;1.80;1.60;;;17.50;66.00;18.40;100288.00;;;;5033108;28;20589;-51
2022/11/24 10:39:38;;;;;;;2.83;1.97;;;17.50;65.90;18.40;100287.00;;;;5034741;28;20163;-53
2022/11/24 10:42:17;;;;;;;2.60;1.70;;;17.60;66.00;18.40;100280.00;;;;5019750;28;20158;-52
2022/11/24 10:44:42;;;;;;;3.43;1.90;;;17.60;65.90;18.40;100278.00;;;;5034544;28;20166;-52
2022/11/24 10:47:18;;;;;;;2.60;2.00;;;17.60;66.00;18.40;100290.00;;;;5051942;28;20181;-53
2022/11/24 10:49:57;;;;;;;1.80;1.47;;;17.60;66.00;18.40;100291.00;;;;5052505;28;20234;-52
2022/11/24 10:52:23;;;;;;;2.80;1.90;;;17.60;66.00;18.40;100281.00;;;;5019092;28;20173;-54
2022/11/24 10:55:00;;;;;;;2.10;1.80;;;17.60;66.00;18.40;100288.00;;;;5034636;28;20167;-54
2022/11/24 10:57:37;;;;;;;2.10;1.57;;;17.50;66.00;18.40;100294.00;;;;5052732;28;20291;-53
2022/11/24 11:00:18;;;;;;;4.53;1.70;;;17.50;66.00;18.40;100288.00;;;;5035726;28;20158;-53